sensor_id;sensor_type;location;lat;lon;timestamp;pressure;altitude;pressure_sealevel;temperature;humidity
42603;BME280;28233;55.748;48.752;2022-12-29T00:00:19;99249.72;;;-8.50;95.75
42603;BME280;28233;55.748;48.752;2022-12-29T00:02:22;99248.66;;;-8.49;95.54
42603;BME280;28233;55.748;48.752;2022-12-29T00:04:25;99250.13;;;-8.46;95.06
42603;BME280;28233;55.748;48.752;2022-12-29T00:06:27;99250.31;;;-8.48;95.64
42603;BME280;28233;55.748;48.752;2022-12-29T00:08:30;99250.53;;;-8.49;95.26
42603;BME280;28233;55.748;48.752;2022-12-29T00:10:43;99253.63;;;-8.46;95.29
42603;BME280;28233;55.748;48.752;2022-12-29T00:12:45;99248.69;;;-8.42;95.33
42603;BME280;28233;55.748;48.752;2022-12-29T00:15:07;99253.41;;;-8.51;94.99
42603;BME280;28233;55.748;48.752;2022-12-29T00:17:29;99249.94;;;-8.58;94.26
42603;BME280;28233;55.748;48.752;2022-12-29T00:19:32;99248.06;;;-8.58;94.73
42603;BME280;28233;55.748;48.752;2022-12-29T00:21:53;99247.84;;;-8.56;94.58
42603;BME280;28233;55.748;48.752;2022-12-29T00:24:19;99243.38;;;-8.56;94.01
42603;BME280;28233;55.748;48.752;2022-12-29T00:26:29;99249.94;;;-8.58;94.60
42603;BME280;28233;55.748;48.752;2022-12-29T00:28:50;99240.28;;;-8.59;94.80
42603;BME280;28233;55.748;48.752;2022-12-29T00:31:11;99246.03;;;-8.62;94.04
42603;BME280;28233;55.748;48.752;2022-12-29T00:33:33;99243.34;;;-8.62;93.67
42603;BME280;28233;55.748;48.752;2022-12-29T00:38:04;99242.94;;;-8.59;94.29
42603;BME280;28233;55.748;48.752;2022-12-29T00:40:28;99242.31;;;-8.61;94.21
42603;BME280;28233;55.748;48.752;2022-12-29T00:43:08;99231.06;;;-8.70;93.90
42603;BME280;28233;55.748;48.752;2022-12-29T00:45:30;99232.28;;;-8.66;93.62
42603;BME280;28233;55.748;48.752;2022-12-29T00:47:33;99225.09;;;-8.65;94.32
42603;BME280;28233;55.748;48.752;2022-12-29T00:49:35;99222.03;;;-8.69;94.00
42603;BME280;28233;55.748;48.752;2022-12-29T00:51:38;99228.63;;;-8.65;94.17
42603;BME280;28233;55.748;48.752;2022-12-29T00:53:41;99233.94;;;-8.72;93.41
42603;BME280;28233;55.748;48.752;2022-12-29T00:55:44;99222.44;;;-8.65;94.10
42603;BME280;28233;55.748;48.752;2022-12-29T00:57:46;99221.00;;;-8.68;93.74
42603;BME280;28233;55.748;48.752;2022-12-29T00:59:49;99221.00;;;-8.68;94.19
42603;BME280;28233;55.748;48.752;2022-12-29T01:01:52;99228.81;;;-8.60;94.15
42603;BME280;28233;55.748;48.752;2022-12-29T01:03:56;99230.25;;;-8.57;94.41
42603;BME280;28233;55.748;48.752;2022-12-29T01:06:09;99221.44;;;-8.58;93.44
42603;BME280;28233;55.748;48.752;2022-12-29T01:08:12;99207.69;;;-8.61;93.96
42603;BME280;28233;55.748;48.752;2022-12-29T01:10:15;99206.47;;;-8.65;93.74
42603;BME280;28233;55.748;48.752;2022-12-29T01:12:19;99206.06;;;-8.62;93.56
42603;BME280;28233;55.748;48.752;2022-12-29T01:14:41;99198.69;;;-8.67;93.44
42603;BME280;28233;55.748;48.752;2022-12-29T01:16:44;99199.91;;;-8.76;93.61
42603;BME280;28233;55.748;48.752;2022-12-29T01:18:47;99206.47;;;-8.72;93.47
42603;BME280;28233;55.748;48.752;2022-12-29T01:20:50;99199.31;;;-8.72;93.34
42603;BME280;28233;55.748;48.752;2022-12-29T01:22:54;99201.16;;;-8.79;93.40
42603;BME280;28233;55.748;48.752;2022-12-29T01:24:58;99201.97;;;-8.78;93.17
42603;BME280;28233;55.748;48.752;2022-12-29T01:27:01;99198.88;;;-8.75;93.82
42603;BME280;28233;55.748;48.752;2022-12-29T01:29:03;99206.47;;;-8.72;94.17
42603;BME280;28233;55.748;48.752;2022-12-29T01:31:07;99202.97;;;-8.73;93.73
42603;BME280;28233;55.748;48.752;2022-12-29T01:33:10;99195.59;;;-8.77;93.53
42603;BME280;28233;55.748;48.752;2022-12-29T01:35:12;99190.88;;;-8.75;93.72
42603;BME280;28233;55.748;48.752;2022-12-29T01:37:15;99200.72;;;-8.76;93.29
42603;BME280;28233;55.748;48.752;2022-12-29T01:39:19;99193.56;;;-8.68;93.85
42603;BME280;28233;55.748;48.752;2022-12-29T01:41:21;99194.19;;;-8.73;93.74
42603;BME280;28233;55.748;48.752;2022-12-29T01:44:01;99197.66;;;-8.73;92.79
42603;BME280;28233;55.748;48.752;2022-12-29T01:46:06;99198.69;;;-8.80;93.16
42603;BME280;28233;55.748;48.752;2022-12-29T01:48:15;99193.97;;;-8.78;93.04
42603;BME280;28233;55.748;48.752;2022-12-29T01:50:28;99192.13;;;-8.71;93.32
42603;BME280;28233;55.748;48.752;2022-12-29T01:52:35;99203.41;;;-8.69;93.43
42603;BME280;28233;55.748;48.752;2022-12-29T01:54:48;99195.00;;;-8.66;93.50
42603;BME280;28233;55.748;48.752;2022-12-29T01:56:55;99200.31;;;-8.66;93.18
42603;BME280;28233;55.748;48.752;2022-12-29T01:59:05;99194.59;;;-8.69;93.31
42603;BME280;28233;55.748;48.752;2022-12-29T02:01:09;99207.91;;;-8.69;93.15
42603;BME280;28233;55.748;48.752;2022-12-29T02:03:12;99201.16;;;-8.72;92.99
42603;BME280;28233;55.748;48.752;2022-12-29T02:05:36;99212.41;;;-8.77;93.50
42603;BME280;28233;55.748;48.752;2022-12-29T02:07:42;99215.47;;;-8.80;92.82
42603;BME280;28233;55.748;48.752;2022-12-29T02:09:50;99217.13;;;-8.79;93.43
42603;BME280;28233;55.748;48.752;2022-12-29T02:11:53;99211.81;;;-8.72;94.12
42603;BME280;28233;55.748;48.752;2022-12-29T02:13:56;99213.44;;;-8.71;93.50
42603;BME280;28233;55.748;48.752;2022-12-29T02:21:17;99222.22;;;-8.77;93.65
42603;BME280;28233;55.748;48.752;2022-12-29T02:26:16;99223.06;;;-8.83;93.38
42603;BME280;28233;55.748;48.752;2022-12-29T02:36:14;99215.69;;;-8.68;93.81
42603;BME280;28233;55.748;48.752;2022-12-29T02:40:42;99214.25;;;-8.70;93.74
42603;BME280;28233;55.748;48.752;2022-12-29T02:42:54;99210.16;;;-8.66;93.71
42603;BME280;28233;55.748;48.752;2022-12-29T02:45:11;99218.78;;;-8.58;93.08
42603;BME280;28233;55.748;48.752;2022-12-29T02:47:51;99210.38;;;-8.55;93.46
42603;BME280;28233;55.748;48.752;2022-12-29T02:50:14;99215.06;;;-8.50;93.47
42603;BME280;28233;55.748;48.752;2022-12-29T02:52:21;99213.03;;;-8.61;93.18
42603;BME280;28233;55.748;48.752;2022-12-29T02:54:26;99212.81;;;-8.60;93.13
42603;BME280;28233;55.748;48.752;2022-12-29T02:56:44;99214.06;;;-8.62;93.38
42603;BME280;28233;55.748;48.752;2022-12-29T02:58:47;99204.84;;;-8.60;93.17
42603;BME280;28233;55.748;48.752;2022-12-29T03:06:30;99206.47;;;-8.59;93.83
42603;BME280;28233;55.748;48.752;2022-12-29T03:08:55;99205.84;;;-8.61;93.35
42603;BME280;28233;55.748;48.752;2022-12-29T03:11:06;99206.88;;;-8.62;93.73
42603;BME280;28233;55.748;48.752;2022-12-29T03:13:44;99222.44;;;-8.59;94.21
42603;BME280;28233;55.748;48.752;2022-12-29T03:21:00;99208.94;;;-8.64;94.23
42603;BME280;28233;55.748;48.752;2022-12-29T03:23:06;99222.44;;;-8.59;94.02
42603;BME280;28233;55.748;48.752;2022-12-29T03:25:25;99210.78;;;-8.58;94.43
42603;BME280;28233;55.748;48.752;2022-12-29T03:27:32;99215.06;;;-8.57;94.39
42603;BME280;28233;55.748;48.752;2022-12-29T03:29:41;99216.72;;;-8.56;94.09
42603;BME280;28233;55.748;48.752;2022-12-29T03:31:48;99217.75;;;-8.50;93.96
42603;BME280;28233;55.748;48.752;2022-12-29T03:33:53;99205.03;;;-8.55;94.14
42603;BME280;28233;55.748;48.752;2022-12-29T03:36:04;99211.59;;;-8.51;94.36
42603;BME280;28233;55.748;48.752;2022-12-29T03:40:27;99208.94;;;-8.44;94.31
42603;BME280;28233;55.748;48.752;2022-12-29T03:42:32;99212.59;;;-8.45;94.26
42603;BME280;28233;55.748;48.752;2022-12-29T03:44:39;99200.72;;;-8.42;94.75
42603;BME280;28233;55.748;48.752;2022-12-29T03:46:43;99199.47;;;-8.40;94.31
42603;BME280;28233;55.748;48.752;2022-12-29T03:48:45;99200.94;;;-8.44;94.02
42603;BME280;28233;55.748;48.752;2022-12-29T03:50:48;99183.91;;;-8.43;93.95
42603;BME280;28233;55.748;48.752;2022-12-29T03:52:51;99196.59;;;-8.38;94.14
42603;BME280;28233;55.748;48.752;2022-12-29T03:54:54;99190.28;;;-8.44;94.12
42603;BME280;28233;55.748;48.752;2022-12-29T03:56:56;99184.16;;;-8.51;93.74
42603;BME280;28233;55.748;48.752;2022-12-29T03:58:59;99191.09;;;-8.50;94.36
42603;BME280;28233;55.748;48.752;2022-12-29T04:01:02;99199.09;;;-8.43;94.41
42603;BME280;28233;55.748;48.752;2022-12-29T04:03:05;99198.47;;;-8.45;94.00
42603;BME280;28233;55.748;48.752;2022-12-29T04:05:08;99197.44;;;-8.44;94.43
42603;BME280;28233;55.748;48.752;2022-12-29T04:07:10;99201.34;;;-8.40;94.73
42603;BME280;28233;55.748;48.752;2022-12-29T04:09:13;99212.59;;;-8.38;95.05
42603;BME280;28233;55.748;48.752;2022-12-29T04:11:16;99193.53;;;-8.42;94.10
42603;BME280;28233;55.748;48.752;2022-12-29T04:13:19;99208.28;;;-8.39;93.99
42603;BME280;28233;55.748;48.752;2022-12-29T04:15:22;99207.25;;;-8.38;94.89
42603;BME280;28233;55.748;48.752;2022-12-29T04:17:26;99210.38;;;-8.41;94.55
42603;BME280;28233;55.748;48.752;2022-12-29T04:19:29;99204.00;;;-8.40;95.03
42603;BME280;28233;55.748;48.752;2022-12-29T04:21:32;99207.88;;;-8.36;94.49
42603;BME280;28233;55.748;48.752;2022-12-29T04:23:36;99208.88;;;-8.37;94.75
42603;BME280;28233;55.748;48.752;2022-12-29T04:25:39;99211.97;;;-8.34;94.50
42603;BME280;28233;55.748;48.752;2022-12-29T04:27:42;99204.00;;;-8.40;94.32
42603;BME280;28233;55.748;48.752;2022-12-29T04:29:45;99214.22;;;-8.37;94.53
42603;BME280;28233;55.748;48.752;2022-12-29T04:31:47;99209.28;;;-8.34;94.17
42603;BME280;28233;55.748;48.752;2022-12-29T04:33:50;99200.25;;;-8.33;94.27
42603;BME280;28233;55.748;48.752;2022-12-29T04:35:53;99220.78;;;-8.33;94.82
42603;BME280;28233;55.748;48.752;2022-12-29T04:37:56;99212.59;;;-8.38;94.34
42603;BME280;28233;55.748;48.752;2022-12-29T04:39:59;99201.91;;;-8.32;94.72
42603;BME280;28233;55.748;48.752;2022-12-29T04:42:02;99198.22;;;-8.37;94.65
42603;BME280;28233;55.748;48.752;2022-12-29T04:44:05;99210.91;;;-8.26;94.07
42603;BME280;28233;55.748;48.752;2022-12-29T04:46:08;99219.09;;;-8.21;94.25
42603;BME280;28233;55.748;48.752;2022-12-29T04:48:11;99220.75;;;-8.20;94.92
42603;BME280;28233;55.748;48.752;2022-12-29T04:50:14;99219.91;;;-8.14;95.26
42603;BME280;28233;55.748;48.752;2022-12-29T04:52:17;99222.38;;;-8.12;94.61
42603;BME280;28233;55.748;48.752;2022-12-29T04:54:20;99227.53;;;-8.11;94.51
42603;BME280;28233;55.748;48.752;2022-12-29T04:56:22;99222.38;;;-8.12;94.66
42603;BME280;28233;55.748;48.752;2022-12-29T04:58:25;99226.09;;;-8.13;94.22
42603;BME280;28233;55.748;48.752;2022-12-29T05:00:28;99233.66;;;-8.10;94.06
42603;BME280;28233;55.748;48.752;2022-12-29T05:02:31;99232.22;;;-8.06;93.97
42603;BME280;28233;55.748;48.752;2022-12-29T05:04:34;99242.69;;;-8.11;94.52
42603;BME280;28233;55.748;48.752;2022-12-29T05:06:36;99245.13;;;-8.10;94.64
42603;BME280;28233;55.748;48.752;2022-12-29T05:08:39;99241.47;;;-8.09;93.83
42603;BME280;28233;55.748;48.752;2022-12-29T05:10:44;99241.25;;;-8.07;94.49
42603;BME280;28233;55.748;48.752;2022-12-29T05:12:48;99240.84;;;-8.04;94.06
42603;BME280;28233;55.748;48.752;2022-12-29T05:14:50;99248.03;;;-8.11;93.23
42603;BME280;28233;55.748;48.752;2022-12-29T05:16:53;99246.38;;;-8.05;93.75
42603;BME280;28233;55.748;48.752;2022-12-29T05:18:59;99244.53;;;-8.05;94.17
42603;BME280;28233;55.748;48.752;2022-12-29T05:21:02;99256.41;;;-8.01;94.34
42603;BME280;28233;55.748;48.752;2022-12-29T05:23:04;99247.19;;;-7.98;94.22
42603;BME280;28233;55.748;48.752;2022-12-29T05:25:08;99254.75;;;-7.95;94.24
42603;BME280;28233;55.748;48.752;2022-12-29T05:27:11;99258.03;;;-7.87;94.57
42603;BME280;28233;55.748;48.752;2022-12-29T05:29:13;99251.03;;;-7.81;94.23
42603;BME280;28233;55.748;48.752;2022-12-29T05:31:16;99257.22;;;-7.80;94.21
42603;BME280;28233;55.748;48.752;2022-12-29T05:33:20;99258.03;;;-7.80;94.55
42603;BME280;28233;55.748;48.752;2022-12-29T05:35:22;99249.22;;;-7.80;93.87
42603;BME280;28233;55.748;48.752;2022-12-29T05:37:25;99263.34;;;-7.80;94.33
42603;BME280;28233;55.748;48.752;2022-12-29T05:39:29;99242.22;;;-7.81;93.96
42603;BME280;28233;55.748;48.752;2022-12-29T05:41:32;99249.41;;;-7.82;94.11
42603;BME280;28233;55.748;48.752;2022-12-29T05:43:35;99239.97;;;-7.84;93.64
42603;BME280;28233;55.748;48.752;2022-12-29T05:45:38;99254.13;;;-7.84;93.91
42603;BME280;28233;55.748;48.752;2022-12-29T05:47:41;99248.97;;;-7.79;93.55
42603;BME280;28233;55.748;48.752;2022-12-29T05:49:43;99243.63;;;-7.79;94.07
42603;BME280;28233;55.748;48.752;2022-12-29T05:51:46;99244.88;;;-7.75;93.93
42603;BME280;28233;55.748;48.752;2022-12-29T05:53:49;99247.09;;;-7.72;94.05
42603;BME280;28233;55.748;48.752;2022-12-29T05:55:52;99251.03;;;-7.74;94.02
42603;BME280;28233;55.748;48.752;2022-12-29T05:57:54;99251.63;;;-7.72;94.29
42603;BME280;28233;55.748;48.752;2022-12-29T05:59:57;99248.34;;;-7.74;93.83
42603;BME280;28233;55.748;48.752;2022-12-29T06:02:00;99247.72;;;-7.63;94.21
42603;BME280;28233;55.748;48.752;2022-12-29T06:04:03;99233.75;;;-7.58;94.51
42603;BME280;28233;55.748;48.752;2022-12-29T06:06:06;99241.75;;;-7.58;94.37
42603;BME280;28233;55.748;48.752;2022-12-29T06:08:10;99244.16;;;-7.50;94.08
42603;BME280;28233;55.748;48.752;2022-12-29T06:10:16;99246.84;;;-7.50;94.43
42603;BME280;28233;55.748;48.752;2022-12-29T06:12:19;99247.88;;;-7.58;93.15
42603;BME280;28233;55.748;48.752;2022-12-29T06:14:23;99256.06;;;-7.53;94.02
42603;BME280;28233;55.748;48.752;2022-12-29T06:16:26;99252.16;;;-7.50;93.46
42603;BME280;28233;55.748;48.752;2022-12-29T06:18:28;99248.28;;;-7.48;93.47
42603;BME280;28233;55.748;48.752;2022-12-29T06:20:31;99249.28;;;-7.42;93.57
42603;BME280;28233;55.748;48.752;2022-12-29T06:22:35;99243.50;;;-7.39;93.43
42603;BME280;28233;55.748;48.752;2022-12-29T06:24:38;99250.88;;;-7.34;94.01
42603;BME280;28233;55.748;48.752;2022-12-29T06:26:41;99252.91;;;-7.30;93.85
42603;BME280;28233;55.748;48.752;2022-12-29T06:28:44;99254.78;;;-7.30;93.17
42603;BME280;28233;55.748;48.752;2022-12-29T06:30:47;99254.94;;;-7.25;93.22
42603;BME280;28233;55.748;48.752;2022-12-29T06:32:51;99241.78;;;-7.20;93.90
42603;BME280;28233;55.748;48.752;2022-12-29T06:34:54;99246.28;;;-7.14;93.49
42603;BME280;28233;55.748;48.752;2022-12-29T06:36:57;99245.03;;;-7.11;92.95
42603;BME280;28233;55.748;48.752;2022-12-29T06:39:00;99243.41;;;-7.12;92.59
42603;BME280;28233;55.748;48.752;2022-12-29T06:41:03;99245.19;;;-7.06;92.75
42603;BME280;28233;55.748;48.752;2022-12-29T06:43:06;99252.78;;;-7.03;92.30
42603;BME280;28233;55.748;48.752;2022-12-29T06:45:09;99241.28;;;-7.04;91.99
42603;BME280;28233;55.748;48.752;2022-12-29T06:47:12;99250.09;;;-7.03;92.03
42603;BME280;28233;55.748;48.752;2022-12-29T06:49:17;99255.00;;;-6.93;92.20
42603;BME280;28233;55.748;48.752;2022-12-29T06:51:20;99252.50;;;-6.88;92.51
42603;BME280;28233;55.748;48.752;2022-12-29T06:53:25;99254.53;;;-6.84;91.96
42603;BME280;28233;55.748;48.752;2022-12-29T06:55:28;99257.03;;;-6.89;91.74
42603;BME280;28233;55.748;48.752;2022-12-29T06:57:32;99247.78;;;-6.86;91.73
42603;BME280;28233;55.748;48.752;2022-12-29T06:59:35;99246.53;;;-6.84;91.96
42603;BME280;28233;55.748;48.752;2022-12-29T07:01:38;99245.91;;;-6.86;91.19
42603;BME280;28233;55.748;48.752;2022-12-29T07:03:41;99245.91;;;-6.86;90.85
42603;BME280;28233;55.748;48.752;2022-12-29T07:05:45;99250.22;;;-6.85;91.34
42603;BME280;28233;55.748;48.752;2022-12-29T07:07:48;99248.19;;;-6.89;90.89
42603;BME280;28233;55.748;48.752;2022-12-29T07:09:51;99249.34;;;-6.78;91.05
42603;BME280;28233;55.748;48.752;2022-12-29T07:11:54;99250.75;;;-6.69;91.75
42603;BME280;28233;55.748;48.752;2022-12-29T07:13:57;99256.28;;;-6.71;91.66
42603;BME280;28233;55.748;48.752;2022-12-29T07:16:07;99250.75;;;-6.69;90.83
42603;BME280;28233;55.748;48.752;2022-12-29T07:18:10;99243.34;;;-6.67;91.25
42603;BME280;28233;55.748;48.752;2022-12-29T07:20:12;99248.44;;;-6.66;91.01
42603;BME280;28233;55.748;48.752;2022-12-29T07:22:15;99237.63;;;-6.77;90.03
42603;BME280;28233;55.748;48.752;2022-12-29T07:24:18;99248.44;;;-6.66;90.79
42603;BME280;28233;55.748;48.752;2022-12-29T07:26:21;99249.44;;;-6.60;91.41
42603;BME280;28233;55.748;48.752;2022-12-29T07:28:24;99250.47;;;-6.61;90.52
42603;BME280;28233;55.748;48.752;2022-12-29T07:30:27;99245.13;;;-6.61;90.28
42603;BME280;28233;55.748;48.752;2022-12-29T07:32:34;99244.63;;;-6.51;90.42
42603;BME280;28233;55.748;48.752;2022-12-29T07:34:37;99233.91;;;-6.45;90.55
42603;BME280;28233;55.748;48.752;2022-12-29T07:36:42;99235.88;;;-6.33;91.21
42603;BME280;28233;55.748;48.752;2022-12-29T07:38:45;99236.25;;;-6.30;89.99
42603;BME280;28233;55.748;48.752;2022-12-29T07:40:47;99231.97;;;-6.38;89.69
42603;BME280;28233;55.748;48.752;2022-12-29T07:42:50;99233.78;;;-6.31;90.00
42603;BME280;28233;55.748;48.752;2022-12-29T07:44:53;99231.56;;;-6.34;89.26
42603;BME280;28233;55.748;48.752;2022-12-29T07:46:56;99234.59;;;-6.31;89.37
42603;BME280;28233;55.748;48.752;2022-12-29T07:49:00;99220.63;;;-6.33;90.26
42603;BME280;28233;55.748;48.752;2022-12-29T07:51:03;99225.22;;;-6.15;90.07
42603;BME280;28233;55.748;48.752;2022-12-29T07:53:05;99231.31;;;-6.08;89.58
42603;BME280;28233;55.748;48.752;2022-12-29T07:55:08;99230.56;;;-6.15;88.50
42603;BME280;28233;55.748;48.752;2022-12-29T07:57:11;99231.16;;;-6.13;88.28
42603;BME280;28233;55.748;48.752;2022-12-29T07:59:14;99229.25;;;-6.06;89.19
42603;BME280;28233;55.748;48.752;2022-12-29T08:01:17;99239.03;;;-6.00;88.57
42603;BME280;28233;55.748;48.752;2022-12-29T08:03:20;99240.25;;;-5.96;88.70
42603;BME280;28233;55.748;48.752;2022-12-29T08:05:23;99230.34;;;-5.95;88.33
42603;BME280;28233;55.748;48.752;2022-12-29T08:07:26;99242.03;;;-5.89;88.11
42603;BME280;28233;55.748;48.752;2022-12-29T08:09:29;99238.44;;;-5.83;88.46
42603;BME280;28233;55.748;48.752;2022-12-29T08:11:32;99244.03;;;-5.85;88.29
42603;BME280;28233;55.748;48.752;2022-12-29T08:13:34;99235.56;;;-5.82;88.25
42603;BME280;28233;55.748;48.752;2022-12-29T08:15:37;99242.09;;;-5.78;88.50
42603;BME280;28233;55.748;48.752;2022-12-29T08:17:40;99242.84;;;-5.70;88.26
42603;BME280;28233;55.748;48.752;2022-12-29T08:19:43;99245.13;;;-5.74;87.63
42603;BME280;28233;55.748;48.752;2022-12-29T08:21:46;99251.47;;;-5.68;88.23
42603;BME280;28233;55.748;48.752;2022-12-29T08:23:48;99238.91;;;-5.68;87.12
42603;BME280;28233;55.748;48.752;2022-12-29T08:26:04;99245.59;;;-5.59;88.02
42603;BME280;28233;55.748;48.752;2022-12-29T08:28:07;99258.53;;;-5.56;88.13
42603;BME280;28233;55.748;48.752;2022-12-29T08:30:10;99244.47;;;-5.51;87.77
42603;BME280;28233;55.748;48.752;2022-12-29T08:32:13;99251.41;;;-5.62;86.54
42603;BME280;28233;55.748;48.752;2022-12-29T08:34:16;99253.63;;;-5.77;85.11
42603;BME280;28233;55.748;48.752;2022-12-29T08:36:24;99245.31;;;-5.69;86.57
42603;BME280;28233;55.748;48.752;2022-12-29T08:38:35;99249.53;;;-5.61;86.88
42603;BME280;28233;55.748;48.752;2022-12-29T08:40:40;99241.72;;;-5.63;86.85
42603;BME280;28233;55.748;48.752;2022-12-29T08:42:44;99243.00;;;-5.65;86.65
42603;BME280;28233;55.748;48.752;2022-12-29T08:44:46;99252.69;;;-5.64;85.43
42603;BME280;28233;55.748;48.752;2022-12-29T08:46:49;99242.03;;;-5.71;86.00
42603;BME280;28233;55.748;48.752;2022-12-29T08:48:53;99253.56;;;-5.70;85.38
42603;BME280;28233;55.748;48.752;2022-12-29T08:50:56;99250.28;;;-5.72;85.47
42603;BME280;28233;55.748;48.752;2022-12-29T08:52:59;99257.03;;;-5.70;85.55
42603;BME280;28233;55.748;48.752;2022-12-29T08:55:02;99241.59;;;-5.68;86.04
42603;BME280;28233;55.748;48.752;2022-12-29T08:57:05;99253.63;;;-5.59;85.90
42603;BME280;28233;55.748;48.752;2022-12-29T08:59:07;99253.03;;;-5.61;85.12
42603;BME280;28233;55.748;48.752;2022-12-29T09:01:10;99244.34;;;-5.56;85.89
42603;BME280;28233;55.748;48.752;2022-12-29T09:03:15;99247.81;;;-5.56;84.51
42603;BME280;28233;55.748;48.752;2022-12-29T09:05:37;99251.41;;;-5.62;84.34
42603;BME280;28233;55.748;48.752;2022-12-29T09:07:40;99239.88;;;-5.62;84.31
42603;BME280;28233;55.748;48.752;2022-12-29T09:09:43;99240.31;;;-5.65;84.93
42603;BME280;28233;55.748;48.752;2022-12-29T09:11:45;99240.91;;;-5.63;84.90
42603;BME280;28233;55.748;48.752;2022-12-29T09:13:49;99251.34;;;-5.74;84.35
42603;BME280;28233;55.748;48.752;2022-12-29T09:15:58;99238.22;;;-5.82;84.90
42603;BME280;28233;55.748;48.752;2022-12-29T09:18:01;99242.69;;;-5.76;84.84
42603;BME280;28233;55.748;48.752;2022-12-29T09:20:04;99230.13;;;-5.75;85.37
42603;BME280;28233;55.748;48.752;2022-12-29T09:22:09;99239.44;;;-5.78;85.40
42603;BME280;28233;55.748;48.752;2022-12-29T09:24:11;99236.09;;;-5.73;85.32
42603;BME280;28233;55.748;48.752;2022-12-29T09:26:14;99236.97;;;-5.79;84.78
42603;BME280;28233;55.748;48.752;2022-12-29T09:28:17;99235.47;;;-5.75;84.58
42603;BME280;28233;55.748;48.752;2022-12-29T09:30:22;99238.38;;;-5.77;85.59
42603;BME280;28233;55.748;48.752;2022-12-29T09:32:24;99233.25;;;-5.78;85.80
42603;BME280;28233;55.748;48.752;2022-12-29T09:34:34;99233.63;;;-5.75;86.21
42603;BME280;28233;55.748;48.752;2022-12-29T09:36:37;99238.44;;;-5.65;86.59
42603;BME280;28233;55.748;48.752;2022-12-29T09:38:40;99232.22;;;-5.59;86.98
42603;BME280;28233;55.748;48.752;2022-12-29T09:40:46;99230.22;;;-5.45;86.98
42603;BME280;28233;55.748;48.752;2022-12-29T09:43:19;99230.69;;;-5.36;86.15
42603;BME280;28233;55.748;48.752;2022-12-29T09:45:29;99230.41;;;-5.28;86.26
42603;BME280;28233;55.748;48.752;2022-12-29T09:47:35;99224.84;;;-5.26;85.42
42603;BME280;28233;55.748;48.752;2022-12-29T09:49:49;99227.06;;;-5.23;85.65
42603;BME280;28233;55.748;48.752;2022-12-29T09:52:13;99223.44;;;-5.29;84.91
42603;BME280;28233;55.748;48.752;2022-12-29T09:57:48;99220.75;;;-5.47;83.87
42603;BME280;28233;55.748;48.752;2022-12-29T10:00:01;99225.88;;;-5.46;85.02
42603;BME280;28233;55.748;48.752;2022-12-29T10:04:21;99228.25;;;-5.38;85.23
42603;BME280;28233;55.748;48.752;2022-12-29T10:17:35;99222.88;;;-5.19;85.90
42603;BME280;28233;55.748;48.752;2022-12-29T10:24:21;99219.00;;;-5.23;84.94
42603;BME280;28233;55.748;48.752;2022-12-29T10:26:29;99221.25;;;-5.39;84.99
42603;BME280;28233;55.748;48.752;2022-12-29T10:30:48;99239.31;;;-5.34;84.85
42603;BME280;28233;55.748;48.752;2022-12-29T10:32:55;99223.78;;;-5.44;84.31
42603;BME280;28233;55.748;48.752;2022-12-29T10:35:14;99221.78;;;-5.48;84.59
42603;BME280;28233;55.748;48.752;2022-12-29T10:37:42;99234.69;;;-5.57;84.11
42603;BME280;28233;55.748;48.752;2022-12-29T10:39:53;99229.22;;;-5.50;85.16
42603;BME280;28233;55.748;48.752;2022-12-29T10:42:08;99227.53;;;-5.45;84.83
42603;BME280;28233;55.748;48.752;2022-12-29T10:44:15;99228.88;;;-5.54;84.02
42603;BME280;28233;55.748;48.752;2022-12-29T10:46:23;99241.81;;;-5.51;84.87
42603;BME280;28233;55.748;48.752;2022-12-29T10:48:32;99227.59;;;-5.52;85.77
42603;BME280;28233;55.748;48.752;2022-12-29T10:50:36;99226.34;;;-5.49;85.36
42603;BME280;28233;55.748;48.752;2022-12-29T10:52:46;99224.94;;;-5.52;85.26
42603;BME280;28233;55.748;48.752;2022-12-29T10:57:05;99226.78;;;-5.52;85.12
42603;BME280;28233;55.748;48.752;2022-12-29T10:59:22;99220.97;;;-5.49;84.89
42603;BME280;28233;55.748;48.752;2022-12-29T11:01:32;99237.25;;;-5.50;85.44
42603;BME280;28233;55.748;48.752;2022-12-29T11:06:10;99234.28;;;-5.61;84.51
42603;BME280;28233;55.748;48.752;2022-12-29T11:08:21;99239.97;;;-5.69;84.61
42603;BME280;28233;55.748;48.752;2022-12-29T11:12:36;99234.88;;;-5.77;85.29
42603;BME280;28233;55.748;48.752;2022-12-29T11:14:39;99246.66;;;-5.78;85.42
42603;BME280;28233;55.748;48.752;2022-12-29T11:16:43;99240.69;;;-5.80;85.25
42603;BME280;28233;55.748;48.752;2022-12-29T11:18:47;99251.91;;;-5.71;86.32
42603;BME280;28233;55.748;48.752;2022-12-29T11:20:56;99248.81;;;-5.68;85.48
42603;BME280;28233;55.748;48.752;2022-12-29T11:23:03;99239.88;;;-5.62;86.01
42603;BME280;28233;55.748;48.752;2022-12-29T11:25:12;99244.53;;;-5.58;86.05
42603;BME280;28233;55.748;48.752;2022-12-29T11:27:23;99252.06;;;-5.66;85.85
42603;BME280;28233;55.748;48.752;2022-12-29T11:29:37;99234.97;;;-5.65;87.13
42603;BME280;28233;55.748;48.752;2022-12-29T11:31:44;99245.59;;;-5.59;87.45
42603;BME280;28233;55.748;48.752;2022-12-29T11:33:47;99244.78;;;-5.59;87.42
42603;BME280;28233;55.748;48.752;2022-12-29T11:35:50;99246.28;;;-5.63;86.49
42603;BME280;28233;55.748;48.752;2022-12-29T11:37:57;99249.00;;;-5.70;86.63
42603;BME280;28233;55.748;48.752;2022-12-29T11:40:05;99255.41;;;-5.71;86.89
42603;BME280;28233;55.748;48.752;2022-12-29T11:42:18;99260.38;;;-5.75;86.97
42603;BME280;28233;55.748;48.752;2022-12-29T11:44:22;99258.75;;;-5.76;87.38
42603;BME280;28233;55.748;48.752;2022-12-29T11:46:28;99264.53;;;-5.79;86.53
42603;BME280;28233;55.748;48.752;2022-12-29T11:48:40;99266.25;;;-5.84;86.55
42603;BME280;28233;55.748;48.752;2022-12-29T11:50:53;99261.56;;;-5.89;87.34
42603;BME280;28233;55.748;48.752;2022-12-29T11:53:03;99260.34;;;-5.93;87.75
42603;BME280;28233;55.748;48.752;2022-12-29T11:55:23;99269.22;;;-5.92;87.91
42603;BME280;28233;55.748;48.752;2022-12-29T11:57:27;99264.22;;;-5.89;88.01
42603;BME280;28233;55.748;48.752;2022-12-29T11:59:37;99259.94;;;-5.90;88.24
42603;BME280;28233;55.748;48.752;2022-12-29T12:01:43;99263.19;;;-5.88;88.60
42603;BME280;28233;55.748;48.752;2022-12-29T12:04:35;99265.03;;;-5.88;88.28